createdAt,value
2019-03-10T00:00:19.114Z,3.87
2019-03-10T00:02:48.514Z,5.47
2019-03-10T00:05:17.923Z,4.10
2019-03-10T00:07:47.245Z,5.47
2019-03-10T00:10:16.618Z,2.87
2019-03-10T00:12:46.014Z,4.03
2019-03-10T00:15:15.421Z,2.77
2019-03-10T00:17:44.669Z,4.60
2019-03-10T00:20:13.957Z,3.17
2019-03-10T00:22:43.257Z,7.30
2019-03-10T00:25:12.670Z,4.30
2019-03-10T00:27:41.972Z,5.03
2019-03-10T00:30:11.454Z,3.03
2019-03-10T00:32:41.004Z,3.77
2019-03-10T00:35:10.493Z,3.47
2019-03-10T00:37:39.804Z,4.70
2019-03-10T00:40:53.039Z,3.30
2019-03-10T00:44:04.824Z,3.60
2019-03-10T00:47:11.081Z,4.10
2019-03-10T00:50:13.331Z,5.80
2019-03-10T00:52:46.197Z,2.97
2019-03-10T00:55:15.510Z,3.93
2019-03-10T00:57:44.827Z,2.60
2019-03-10T01:00:16.868Z,4.40
2019-03-10T01:02:46.169Z,3.90
2019-03-10T01:05:15.596Z,3.50
2019-03-10T01:07:44.993Z,4.30
2019-03-10T01:10:14.581Z,4.40
2019-03-10T01:12:44.201Z,4.00
2019-03-10T01:15:13.590Z,3.77
2019-03-10T01:17:43.603Z,4.67
2019-03-10T01:20:13.173Z,3.43
2019-03-10T01:22:42.464Z,3.03
2019-03-10T01:25:11.963Z,3.37
2019-03-10T01:27:41.438Z,4.87
2019-03-10T01:30:13.993Z,2.87
2019-03-10T01:33:25.649Z,4.07
2019-03-10T01:35:55.012Z,4.23
2019-03-10T01:38:24.382Z,3.63
2019-03-10T01:40:53.982Z,6.20
2019-03-10T01:43:23.170Z,6.30
2019-03-10T01:45:52.509Z,3.73
2019-03-10T01:48:21.812Z,3.87
2019-03-10T01:50:51.119Z,4.57
2019-03-10T01:53:25.593Z,5.40
2019-03-10T01:55:51.392Z,3.70
2019-03-10T01:58:20.711Z,4.37
2019-03-10T02:00:50.013Z,3.67
2019-03-10T02:03:19.420Z,2.70
2019-03-10T02:05:48.732Z,3.50
2019-03-10T02:08:18.046Z,3.87
2019-03-10T02:10:47.379Z,2.87
2019-03-10T02:13:16.686Z,3.60
2019-03-10T02:15:46.607Z,4.30
2019-03-10T02:18:15.933Z,4.00
2019-03-10T02:20:45.240Z,3.07
2019-03-10T02:23:14.579Z,3.50
2019-03-10T02:25:43.870Z,2.80
2019-03-10T02:28:13.180Z,2.90
2019-03-10T02:30:42.506Z,2.60
2019-03-10T02:33:11.869Z,3.33
2019-03-10T02:35:41.139Z,3.47
2019-03-10T02:38:10.436Z,2.80
2019-03-10T02:40:43.157Z,3.47
2019-03-10T02:43:10.779Z,3.27
2019-03-10T02:45:40.440Z,4.90
2019-03-10T02:48:09.904Z,3.00
2019-03-10T02:50:39.168Z,2.70
2019-03-10T02:53:08.721Z,4.03
2019-03-10T02:55:38.165Z,2.50
2019-03-10T02:58:07.725Z,2.33
2019-03-10T03:00:37.092Z,2.47
2019-03-10T03:03:06.463Z,2.50
2019-03-10T03:05:35.823Z,2.13
2019-03-10T03:08:05.235Z,2.73
2019-03-10T03:10:34.625Z,3.30
2019-03-10T03:13:03.943Z,2.80
2019-03-10T03:15:33.547Z,2.43
2019-03-10T03:18:02.902Z,2.43
2019-03-10T03:20:32.341Z,2.60
2019-03-10T03:23:01.554Z,3.57
2019-03-10T03:25:30.756Z,3.77
2019-03-10T03:28:00.109Z,2.43
2019-03-10T03:30:29.574Z,2.30
2019-03-10T03:32:59.038Z,3.10
2019-03-10T03:35:54.227Z,1.97
2019-03-10T03:38:38.332Z,2.77
2019-03-10T03:41:13.205Z,2.30
2019-03-10T03:43:42.644Z,2.13
2019-03-10T03:46:11.994Z,2.20
2019-03-10T03:48:41.367Z,2.60
2019-03-10T03:51:10.643Z,3.00
2019-03-10T03:53:39.952Z,2.93
2019-03-10T03:56:09.257Z,2.60
2019-03-10T03:58:38.578Z,2.70
2019-03-10T04:01:17.516Z,2.37
2019-03-10T04:03:46.768Z,2.07
2019-03-10T04:06:16.063Z,2.33
2019-03-10T04:08:45.436Z,2.00
2019-03-10T04:11:14.766Z,2.50
2019-03-10T04:13:43.986Z,2.13
2019-03-10T04:16:13.226Z,1.93
2019-03-10T04:18:42.583Z,2.43
2019-03-10T04:21:12.233Z,1.73
2019-03-10T04:23:43.318Z,2.47
2019-03-10T04:26:12.664Z,2.40
2019-03-10T04:28:41.981Z,2.37
2019-03-10T04:31:11.281Z,1.70
2019-03-10T04:33:40.883Z,1.60
2019-03-10T04:36:10.564Z,2.00
2019-03-10T04:38:40.097Z,1.83
2019-03-10T04:41:09.397Z,1.97
2019-03-10T04:43:38.784Z,2.03
2019-03-10T04:46:08.339Z,2.20
2019-03-10T04:48:37.645Z,1.43
2019-03-10T04:51:07.007Z,1.57
2019-03-10T04:53:36.323Z,2.20
2019-03-10T04:56:23.096Z,1.77
2019-03-10T04:58:53.030Z,1.90
2019-03-10T05:01:22.828Z,1.80
2019-03-10T05:03:52.137Z,1.10
2019-03-10T05:06:21.752Z,2.10
2019-03-10T05:08:51.058Z,1.70
2019-03-10T05:11:20.431Z,1.70
2019-03-10T05:13:50.093Z,2.47
2019-03-10T05:16:19.394Z,1.90
2019-03-10T05:18:48.725Z,2.17
2019-03-10T05:21:18.151Z,1.90
2019-03-10T05:23:47.455Z,2.00
2019-03-10T05:26:17.251Z,1.73
2019-03-10T05:28:49.616Z,1.73
2019-03-10T05:31:19.196Z,2.13
2019-03-10T05:33:48.478Z,1.50
2019-03-10T05:36:17.775Z,2.00
2019-03-10T05:38:47.109Z,1.93
2019-03-10T05:41:16.575Z,2.60
2019-03-10T05:43:45.869Z,1.60
2019-03-10T05:46:15.325Z,2.27
2019-03-10T05:48:44.703Z,1.87
2019-03-10T05:51:14.126Z,2.03
2019-03-10T05:53:43.447Z,3.60
2019-03-10T05:56:13.049Z,2.20
2019-03-10T05:58:42.477Z,1.50
2019-03-10T06:01:12.014Z,1.97
2019-03-10T06:03:41.335Z,1.63
2019-03-10T06:06:10.948Z,1.63
2019-03-10T06:08:40.191Z,1.10
2019-03-10T06:11:09.468Z,1.03
2019-03-10T06:13:39.153Z,1.50
2019-03-10T06:16:08.575Z,0.90
2019-03-10T06:18:38.002Z,1.00
2019-03-10T06:21:07.607Z,1.30
2019-03-10T06:23:36.969Z,1.13
2019-03-10T06:26:06.361Z,1.03
2019-03-10T06:28:39.533Z,0.60
2019-03-10T06:31:08.921Z,0.80
2019-03-10T06:33:38.223Z,0.90
2019-03-10T06:36:07.567Z,1.03
2019-03-10T06:38:37.265Z,1.10
2019-03-10T06:41:07.013Z,0.60
2019-03-10T06:43:35.708Z,0.60
2019-03-10T06:46:04.585Z,0.60
2019-03-10T06:48:34.008Z,0.70
2019-03-10T06:51:03.402Z,0.80
2019-03-10T06:53:33.178Z,1.03
2019-03-10T06:56:02.396Z,0.60
2019-03-10T06:58:31.758Z,0.93
2019-03-10T07:01:00.453Z,0.80
2019-03-10T07:03:29.934Z,0.50
2019-03-10T07:06:01.418Z,0.50
2019-03-10T07:08:32.584Z,0.50
2019-03-10T07:11:01.330Z,0.50
2019-03-10T07:13:30.620Z,0.60
2019-03-10T07:15:59.406Z,0.77
2019-03-10T07:18:28.915Z,0.50
2019-03-10T07:20:58.202Z,0.80
2019-03-10T07:23:27.607Z,0.80
2019-03-10T07:26:06.787Z,0.50
2019-03-10T07:28:53.991Z,0.70
2019-03-10T07:31:27.944Z,0.70
2019-03-10T07:34:14.361Z,1.00
2019-03-10T07:37:04.818Z,1.23
2019-03-10T07:39:48.346Z,0.80
2019-03-10T07:42:35.084Z,0.70
2019-03-10T07:45:21.458Z,0.60
2019-03-10T07:48:04.075Z,0.60
2019-03-10T07:51:09.827Z,0.50
2019-03-10T07:54:15.836Z,0.87
2019-03-10T07:57:03.541Z,0.50
2019-03-10T07:59:43.344Z,1.00
2019-03-10T08:02:37.011Z,0.67
2019-03-10T08:05:25.356Z,0.70
2019-03-10T08:08:11.841Z,1.03
2019-03-10T08:11:05.716Z,0.70
2019-03-10T08:14:09.194Z,0.83
2019-03-10T08:16:59.984Z,0.80
2019-03-10T08:19:45.725Z,0.80
2019-03-10T08:22:39.289Z,0.90
2019-03-10T08:25:26.076Z,1.10
2019-03-10T08:28:05.660Z,1.00
2019-03-10T08:30:52.621Z,1.17
2019-03-10T08:33:39.802Z,1.10
2019-03-10T08:36:26.739Z,0.47
2019-03-10T08:39:17.839Z,0.77
2019-03-10T08:41:53.841Z,0.93
2019-03-10T08:44:40.896Z,1.03
2019-03-10T08:47:16.879Z,1.30
2019-03-10T08:50:11.887Z,1.37
2019-03-10T08:52:55.437Z,1.03
2019-03-10T08:55:52.823Z,1.43
2019-03-10T08:58:55.615Z,0.90
2019-03-10T09:01:52.901Z,2.00
2019-03-10T09:04:41.591Z,1.23
2019-03-10T09:07:29.933Z,1.50
2019-03-10T09:10:10.564Z,1.23
2019-03-10T09:13:10.527Z,1.30
2019-03-10T09:15:58.757Z,1.90
2019-03-10T09:18:41.695Z,1.80
2019-03-10T09:21:27.755Z,0.70
2019-03-10T09:24:37.252Z,1.03
2019-03-10T09:27:23.888Z,1.50
2019-03-10T09:30:10.949Z,1.67
2019-03-10T09:32:58.676Z,1.57
2019-03-10T09:35:48.482Z,1.33
2019-03-10T09:38:39.323Z,0.60
2019-03-10T09:41:33.194Z,1.10
2019-03-10T09:44:20.947Z,0.70
2019-03-10T09:46:57.467Z,1.50
2019-03-10T09:49:43.061Z,1.67
2019-03-10T09:52:21.210Z,2.00
2019-03-10T09:55:26.966Z,2.30
2019-03-10T09:58:17.254Z,1.73
2019-03-10T10:01:08.078Z,2.20
2019-03-10T10:03:44.491Z,2.70
2019-03-10T10:06:30.605Z,2.17
2019-03-10T10:09:17.221Z,1.67
2019-03-10T10:12:13.054Z,1.53
2019-03-10T10:14:52.962Z,2.20
2019-03-10T10:17:32.018Z,1.47
2019-03-10T10:20:31.581Z,1.27
2019-03-10T10:23:25.869Z,1.87
2019-03-10T10:26:12.736Z,1.47
2019-03-10T10:29:06.845Z,2.00
2019-03-10T10:31:57.929Z,2.53
2019-03-10T10:34:52.859Z,2.03
2019-03-10T10:37:37.394Z,3.10
2019-03-10T10:40:25.377Z,2.20
2019-03-10T10:43:12.659Z,1.70
2019-03-10T10:46:06.682Z,2.53
2019-03-10T10:48:52.889Z,1.17
2019-03-10T10:51:41.460Z,1.50
2019-03-10T10:54:29.588Z,1.73
2019-03-10T10:57:32.359Z,1.57
2019-03-10T11:00:21.005Z,2.63
2019-03-10T11:03:00.333Z,1.70
2019-03-10T11:05:49.362Z,1.73
2019-03-10T11:08:37.290Z,1.50
2019-03-10T11:11:33.931Z,2.27
2019-03-10T11:14:20.230Z,3.67
2019-03-10T11:17:17.561Z,3.30
2019-03-10T11:20:05.450Z,3.50
2019-03-10T11:22:46.265Z,3.40
2019-03-10T11:25:27.393Z,4.63
2019-03-10T11:28:14.368Z,5.00
2019-03-10T11:30:51.527Z,2.00
2019-03-10T11:33:38.413Z,2.47
2019-03-10T11:36:24.909Z,4.07
2019-03-10T11:39:11.227Z,2.00
2019-03-10T11:41:57.752Z,3.50
2019-03-10T11:44:54.672Z,5.17
2019-03-10T11:47:48.312Z,2.47
2019-03-10T11:50:34.733Z,2.70
2019-03-10T11:53:27.416Z,2.90
2019-03-10T11:56:10.968Z,1.73
2019-03-10T11:59:01.522Z,3.13
2019-03-10T12:01:55.311Z,3.40
2019-03-10T12:04:49.919Z,2.20
2019-03-10T12:07:26.409Z,2.37
2019-03-10T12:09:55.146Z,3.73
2019-03-10T12:12:24.153Z,2.60
2019-03-10T12:14:52.862Z,2.20
2019-03-10T12:17:21.609Z,2.67
2019-03-10T12:19:50.385Z,2.10
2019-03-10T12:22:19.078Z,3.57
2019-03-10T12:24:48.398Z,3.30
2019-03-10T12:27:17.140Z,1.97
2019-03-10T12:29:45.905Z,2.00
2019-03-10T12:32:14.629Z,2.77
2019-03-10T12:34:43.436Z,3.77
2019-03-10T12:37:12.756Z,3.10
2019-03-10T12:39:42.945Z,5.53
2019-03-10T12:42:12.309Z,2.60
2019-03-10T12:44:41.633Z,2.83
2019-03-10T12:47:10.969Z,3.17
2019-03-10T12:49:39.698Z,3.43
2019-03-10T12:52:08.468Z,3.40
2019-03-10T12:54:37.172Z,3.60
2019-03-10T12:57:05.962Z,2.73
2019-03-10T12:59:35.059Z,3.60
2019-03-10T13:02:03.808Z,2.10
2019-03-10T13:04:33.548Z,2.83
2019-03-10T13:07:02.608Z,3.37
2019-03-10T13:09:31.711Z,3.00
2019-03-10T13:12:00.455Z,2.70
2019-03-10T13:14:30.877Z,3.13
2019-03-10T13:16:59.595Z,3.07
2019-03-10T13:19:28.403Z,2.87
2019-03-10T13:21:57.204Z,2.67
2019-03-10T13:24:30.802Z,1.83
2019-03-10T13:27:00.625Z,2.90
2019-03-10T13:29:30.086Z,0.90
2019-03-10T13:32:00.618Z,1.87
2019-03-10T13:34:30.035Z,1.50
2019-03-10T13:36:59.493Z,1.67
2019-03-10T13:39:28.285Z,1.63
2019-03-10T13:41:57.022Z,1.80
2019-03-10T13:44:25.937Z,1.27
2019-03-10T13:46:54.609Z,1.37
2019-03-10T13:49:23.332Z,0.97
2019-03-10T13:51:52.711Z,0.57
2019-03-10T13:54:21.517Z,0.90
2019-03-10T13:56:51.027Z,0.80
2019-03-10T13:59:19.697Z,0.60
2019-03-10T14:01:48.883Z,0.63
2019-03-10T14:04:19.868Z,0.90
2019-03-10T14:06:49.284Z,1.17
2019-03-10T14:09:18.705Z,1.27
2019-03-10T14:11:48.166Z,0.90
2019-03-10T14:14:16.831Z,0.53
2019-03-10T14:16:45.745Z,0.77
2019-03-10T14:19:15.139Z,1.60
2019-03-10T14:21:44.122Z,0.80
2019-03-10T14:24:13.491Z,0.73
2019-03-10T14:26:42.812Z,1.20
2019-03-10T14:29:12.160Z,0.80
2019-03-10T14:31:41.647Z,0.80
2019-03-10T14:34:11.038Z,1.17
2019-03-10T14:36:40.312Z,1.13
2019-03-10T14:39:09.740Z,1.80
2019-03-10T14:41:39.056Z,0.77
2019-03-10T14:44:08.366Z,0.63
2019-03-10T14:46:37.713Z,0.73
2019-03-10T14:49:07.061Z,1.00
2019-03-10T14:51:36.616Z,1.20
2019-03-10T14:54:06.117Z,1.20
2019-03-10T14:56:35.484Z,0.90
2019-03-10T14:59:04.822Z,1.10
2019-03-10T15:01:34.088Z,1.17
2019-03-10T15:04:03.492Z,1.10
2019-03-10T15:06:32.994Z,0.93
2019-03-10T15:09:02.295Z,0.93
2019-03-10T15:11:31.704Z,0.80
2019-03-10T15:14:02.032Z,0.90
2019-03-10T15:16:31.684Z,0.77
2019-03-10T15:19:01.327Z,1.57
2019-03-10T15:21:33.595Z,1.30
2019-03-10T15:24:03.219Z,1.30
2019-03-10T15:26:32.662Z,1.10
2019-03-10T15:29:02.085Z,0.50
2019-03-10T15:31:31.480Z,1.17
2019-03-10T15:34:01.076Z,1.67
2019-03-10T15:36:30.472Z,1.50
2019-03-10T15:38:59.871Z,1.70
2019-03-10T15:41:29.162Z,1.03
2019-03-10T15:43:58.468Z,1.53
2019-03-10T15:46:27.878Z,1.50
2019-03-10T15:48:57.326Z,1.00
2019-03-10T15:51:26.663Z,2.30
2019-03-10T15:53:56.366Z,1.30
2019-03-10T15:56:25.852Z,1.30
2019-03-10T15:59:01.958Z,1.73
2019-03-10T16:01:50.647Z,1.30
2019-03-10T16:07:25.500Z,0.90
2019-03-10T16:10:22.400Z,0.67
2019-03-10T16:12:55.683Z,1.07
2019-03-10T16:15:50.141Z,1.17
2019-03-10T16:18:44.204Z,0.80
2019-03-10T16:21:23.042Z,0.83
2019-03-10T16:24:06.952Z,1.30
2019-03-10T16:26:43.776Z,1.10
2019-03-10T16:29:19.489Z,1.10
2019-03-10T16:31:58.959Z,1.20
2019-03-10T16:34:33.410Z,1.00
2019-03-10T16:37:27.347Z,1.00
2019-03-10T16:40:17.864Z,1.00
2019-03-10T16:43:28.578Z,1.30
2019-03-10T16:46:03.190Z,0.90
2019-03-10T16:48:32.742Z,0.80
2019-03-10T16:51:04.817Z,0.87
2019-03-10T16:53:34.360Z,1.00
2019-03-10T16:56:45.370Z,0.80
2019-03-10T16:59:17.902Z,0.60
2019-03-10T17:01:48.860Z,1.10
2019-03-10T17:04:18.526Z,0.88
2019-03-10T17:06:49.466Z,1.13
2019-03-10T17:09:21.789Z,1.17
2019-03-10T17:11:51.116Z,1.30
2019-03-10T17:14:20.494Z,1.40
2019-03-10T17:16:50.054Z,1.00
2019-03-10T17:19:19.458Z,1.43
2019-03-10T17:21:48.871Z,1.67
2019-03-10T17:24:18.188Z,1.23
2019-03-10T17:26:47.490Z,1.13
2019-03-10T17:29:16.760Z,1.10
2019-03-10T17:31:46.445Z,1.40
2019-03-10T17:34:15.764Z,0.90
2019-03-10T17:36:45.436Z,1.57
2019-03-10T17:39:14.831Z,1.20
2019-03-10T17:41:44.220Z,2.50
2019-03-10T17:44:13.850Z,1.83
2019-03-10T17:46:43.256Z,1.70
2019-03-10T17:49:12.579Z,1.30
2019-03-10T17:51:41.868Z,1.40
2019-03-10T17:54:11.173Z,0.93
2019-03-10T17:56:40.567Z,1.40
2019-03-10T17:59:10.305Z,1.70
2019-03-10T18:01:39.595Z,1.50
2019-03-10T18:04:08.978Z,0.80
2019-03-10T18:06:38.293Z,1.00
2019-03-10T18:09:08.200Z,1.07
2019-03-10T18:11:37.491Z,0.90
2019-03-10T18:14:07.155Z,0.70
2019-03-10T18:16:36.520Z,0.47
2019-03-10T18:19:05.837Z,1.13
2019-03-10T18:21:35.290Z,0.53
2019-03-10T18:24:04.713Z,0.43
2019-03-10T18:26:34.063Z,0.60
2019-03-10T18:29:03.457Z,0.60
2019-03-10T18:31:32.855Z,0.97
2019-03-10T18:34:02.646Z,0.70
2019-03-10T18:36:32.271Z,1.17
2019-03-10T18:39:01.682Z,0.60
2019-03-10T18:41:31.094Z,0.73
2019-03-10T18:44:00.424Z,1.73
2019-03-10T18:46:32.288Z,1.27
2019-03-10T18:49:01.561Z,1.20
2019-03-10T18:51:31.240Z,0.87
2019-03-10T18:54:00.558Z,1.03
2019-03-10T18:56:29.889Z,1.20
2019-03-10T18:58:59.299Z,1.50
2019-03-10T19:01:28.696Z,0.60
2019-03-10T19:03:58.121Z,1.20
2019-03-10T19:06:27.437Z,1.00
2019-03-10T19:08:56.838Z,1.50
2019-03-10T19:11:26.319Z,0.60
2019-03-10T19:13:55.995Z,0.60
2019-03-10T19:16:25.561Z,0.37
2019-03-10T19:18:54.981Z,0.90
2019-03-10T19:21:24.316Z,0.93
2019-03-10T19:23:53.670Z,1.80
2019-03-10T19:26:22.941Z,0.80
2019-03-10T19:28:52.290Z,1.20
2019-03-10T19:31:21.690Z,1.83
2019-03-10T19:33:51.306Z,1.13
2019-03-10T19:36:20.536Z,1.20
2019-03-10T19:38:50.246Z,1.40
2019-03-10T19:41:19.893Z,1.50
2019-03-10T19:43:49.465Z,0.80
2019-03-10T19:46:19.354Z,1.60
2019-03-10T19:48:48.130Z,1.10
2019-03-10T19:51:17.709Z,1.50
2019-03-10T19:53:47.045Z,1.60
2019-03-10T19:56:16.786Z,1.23
2019-03-10T19:58:47.002Z,1.13
2019-03-10T20:01:16.414Z,1.23
2019-03-10T20:03:47.555Z,1.87
2019-03-10T20:06:17.309Z,1.83
2019-03-10T20:08:46.931Z,1.50
2019-03-10T20:11:16.319Z,2.07
2019-03-10T20:13:45.620Z,1.83
2019-03-10T20:16:15.017Z,1.50
2019-03-10T20:18:44.434Z,1.30
2019-03-10T20:21:13.782Z,1.83
2019-03-10T20:23:43.175Z,2.90
2019-03-10T20:26:13.690Z,1.67
2019-03-10T20:28:43.067Z,1.80
2019-03-10T20:31:12.475Z,2.10
2019-03-10T20:33:41.792Z,1.77
2019-03-10T20:36:11.175Z,2.20
2019-03-10T20:38:40.663Z,2.37
2019-03-10T20:41:09.998Z,1.83
2019-03-10T20:43:39.376Z,2.50
2019-03-10T20:46:08.731Z,1.33
2019-03-10T20:48:39.810Z,2.43
2019-03-10T20:51:08.612Z,1.13
2019-03-10T20:53:37.317Z,1.93
2019-03-10T20:56:07.812Z,0.90
2019-03-10T20:58:36.762Z,1.10
2019-03-10T21:01:06.351Z,1.87
2019-03-10T21:03:35.673Z,3.80
2019-03-10T21:06:05.008Z,1.80
2019-03-10T21:08:34.336Z,2.10
2019-03-10T21:11:03.642Z,2.00
2019-03-10T21:13:33.233Z,0.63
2019-03-10T21:16:02.534Z,2.90
2019-03-10T21:18:31.847Z,1.60
2019-03-10T21:21:01.181Z,2.60
2019-03-10T21:23:30.508Z,2.27
2019-03-10T21:25:59.786Z,2.43
2019-03-10T21:28:29.462Z,2.00
2019-03-10T21:30:58.922Z,2.10
2019-03-10T21:33:28.271Z,2.47
2019-03-10T21:35:57.594Z,1.60
2019-03-10T21:38:26.951Z,1.63
2019-03-10T21:40:56.332Z,1.73
2019-03-10T21:43:25.701Z,2.50
2019-03-10T21:45:55.020Z,1.80
2019-03-10T21:48:24.309Z,1.57
2019-03-10T21:50:53.886Z,2.00
2019-03-10T21:53:23.269Z,1.27
2019-03-10T21:55:52.762Z,0.90
2019-03-10T21:58:22.118Z,1.90
2019-03-10T22:00:51.430Z,1.63
2019-03-10T22:03:20.708Z,2.63
2019-03-10T22:05:50.038Z,1.80
2019-03-10T22:08:19.546Z,1.47
2019-03-10T22:10:49.134Z,2.00
2019-03-10T22:13:19.647Z,2.23
2019-03-10T22:15:49.072Z,2.23
2019-03-10T22:18:18.496Z,1.10
2019-03-10T22:20:47.806Z,1.40
2019-03-10T22:23:17.137Z,2.23
2019-03-10T22:25:46.576Z,1.87
2019-03-10T22:28:15.935Z,1.70
2019-03-10T22:30:45.383Z,1.00
2019-03-10T22:33:14.697Z,1.23
2019-03-10T22:35:44.356Z,2.30
2019-03-10T22:38:15.373Z,1.30
2019-03-10T22:40:45.103Z,0.77
2019-03-10T22:43:14.559Z,1.23
2019-03-10T22:45:43.885Z,2.23
2019-03-10T22:48:13.110Z,0.97
2019-03-10T22:50:42.439Z,1.30
2019-03-10T22:53:11.747Z,1.93
2019-03-10T22:55:41.066Z,0.87
2019-03-10T22:58:10.400Z,3.43
2019-03-10T23:00:47.036Z,2.40
2019-03-10T23:03:16.426Z,1.27
2019-03-10T23:05:45.759Z,1.70
2019-03-10T23:08:15.077Z,1.60
2019-03-10T23:10:44.788Z,2.10
2019-03-10T23:13:14.110Z,1.50
2019-03-10T23:15:43.614Z,1.63
2019-03-10T23:18:12.880Z,1.50
2019-03-10T23:20:42.395Z,2.50
2019-03-10T23:23:11.716Z,1.80
2019-03-10T23:25:41.081Z,1.40
2019-03-10T23:28:10.471Z,1.63
2019-03-10T23:30:39.784Z,2.20
2019-03-10T23:33:09.100Z,1.53
2019-03-10T23:35:38.526Z,1.67
2019-03-10T23:38:08.067Z,2.47
2019-03-10T23:40:37.638Z,1.87
2019-03-10T23:43:06.995Z,3.03
2019-03-10T23:45:36.276Z,3.17
2019-03-10T23:48:05.539Z,3.07
2019-03-10T23:50:34.967Z,1.30
2019-03-10T23:53:04.269Z,2.00
2019-03-10T23:55:33.602Z,2.50
2019-03-10T23:58:02.895Z,2.10
